createdAt,value
2022-12-10T00:00:01.198Z,208.23
2022-12-10T00:02:04.574Z,192.52
2022-12-10T00:04:08.448Z,187.95
2022-12-10T00:06:13.938Z,179.90
2022-12-10T00:08:17.280Z,166.88
2022-12-10T00:10:20.579Z,190.55
2022-12-10T00:12:23.879Z,195.25
2022-12-10T00:14:28.538Z,207.02
2022-12-10T00:16:34.278Z,171.80
2022-12-10T00:18:38.348Z,188.40
2022-12-10T00:20:41.657Z,196.55
2022-12-10T00:22:44.941Z,173.43
2022-12-10T00:24:48.302Z,159.55
2022-12-10T00:26:51.589Z,190.38
2022-12-10T00:28:56.665Z,171.38
2022-12-10T00:31:06.086Z,191.85
2022-12-10T00:33:09.439Z,171.70
2022-12-10T00:35:12.756Z,161.05
2022-12-10T00:37:16.154Z,166.30
2022-12-10T00:39:21.753Z,194.80
2022-12-10T00:41:25.262Z,152.93
2022-12-10T00:43:28.756Z,167.85
2022-12-10T00:45:32.045Z,174.00
2022-12-10T00:47:36.805Z,183.85
2022-12-10T00:49:40.163Z,185.30
2022-12-10T00:51:43.505Z,167.02
2022-12-10T00:53:50.837Z,159.40
2022-12-10T00:55:54.752Z,174.45
2022-12-10T00:57:58.182Z,180.25
2022-12-10T01:00:01.758Z,120.95
2022-12-10T01:02:05.645Z,155.63
2022-12-10T01:04:12.117Z,133.75
2022-12-10T01:06:18.886Z,141.57
2022-12-10T01:08:22.194Z,172.98
2022-12-10T01:10:25.528Z,165.63
2022-12-10T01:12:28.888Z,138.85
2022-12-10T01:14:34.578Z,157.02
2022-12-10T01:16:38.613Z,161.80
2022-12-10T01:18:42.738Z,149.55
2022-12-10T01:20:47.406Z,132.88
2022-12-10T01:22:51.359Z,119.70
2022-12-10T01:24:54.762Z,150.40
2022-12-10T01:26:58.556Z,144.40
2022-12-10T01:29:02.171Z,132.60
2022-12-10T01:31:09.210Z,115.57
2022-12-10T01:33:12.554Z,152.77
2022-12-10T01:35:16.126Z,151.77
2022-12-10T01:37:20.795Z,127.40
2022-12-10T01:39:26.024Z,132.15
2022-12-10T01:41:31.259Z,133.10
2022-12-10T01:43:51.050Z,143.30
2022-12-10T01:45:54.951Z,141.23
2022-12-10T01:48:01.284Z,159.75
2022-12-10T01:50:09.062Z,122.97
2022-12-10T01:52:15.164Z,114.82
2022-12-10T01:54:24.378Z,128.23
2022-12-10T01:56:28.040Z,138.88
2022-12-10T01:58:31.703Z,132.05
2022-12-10T02:00:39.751Z,123.72
2022-12-10T02:02:48.906Z,110.53
2022-12-10T02:05:03.335Z,92.80
2022-12-10T02:07:15.579Z,118.65
2022-12-10T02:09:27.303Z,124.35
2022-12-10T02:11:38.965Z,125.75
2022-12-10T02:13:45.955Z,78.68
2022-12-10T02:15:52.710Z,104.53
2022-12-10T02:18:00.010Z,85.30
2022-12-10T02:20:09.642Z,45.50
2022-12-10T02:22:15.373Z,74.03
2022-12-10T02:24:24.169Z,66.10
2022-12-10T02:26:42.360Z,46.97
2022-12-10T02:28:51.932Z,70.15
2022-12-10T02:30:57.775Z,52.88
2022-12-10T02:33:05.234Z,72.70
2022-12-10T02:35:12.762Z,59.45
2022-12-10T02:37:21.978Z,81.82
2022-12-10T02:39:37.907Z,43.33
2022-12-10T02:41:45.621Z,48.50
2022-12-10T02:43:52.967Z,69.35
2022-12-10T02:45:59.533Z,84.70
2022-12-10T02:48:06.152Z,88.80
2022-12-10T02:50:17.889Z,110.18
2022-12-10T02:52:22.650Z,108.35
2022-12-10T02:54:43.854Z,107.63
2022-12-10T02:56:56.952Z,79.72
2022-12-10T02:59:17.850Z,96.40
2022-12-10T03:01:39.038Z,94.10
2022-12-10T03:03:49.461Z,46.67
2022-12-10T03:06:01.350Z,90.88
2022-12-10T03:08:11.228Z,115.22
2022-12-10T03:10:24.242Z,92.18
2022-12-10T03:12:31.566Z,105.40
2022-12-10T03:14:36.677Z,101.15
2022-12-10T03:16:45.384Z,105.50
2022-12-10T03:18:54.853Z,86.40
2022-12-10T03:21:03.674Z,91.70
2022-12-10T03:23:18.350Z,93.25
2022-12-10T03:25:26.041Z,97.80
2022-12-10T03:27:31.870Z,106.78
2022-12-10T03:29:39.914Z,47.20
2022-12-10T03:31:45.267Z,48.83
2022-12-10T03:33:50.446Z,104.53
2022-12-10T03:35:53.803Z,100.50
2022-12-10T03:37:57.948Z,82.40
2022-12-10T03:40:01.689Z,78.38
2022-12-10T03:42:06.397Z,73.25
2022-12-10T03:44:09.691Z,100.75
2022-12-10T03:46:13.011Z,83.35
2022-12-10T03:48:17.861Z,90.82
2022-12-10T03:50:21.231Z,111.63
2022-12-10T03:52:24.560Z,95.32
2022-12-10T03:54:28.230Z,106.82
2022-12-10T03:56:31.543Z,117.57
2022-12-10T03:58:34.850Z,136.85
2022-12-10T04:00:38.163Z,101.45
2022-12-10T04:02:41.499Z,121.15
2022-12-10T04:04:46.401Z,88.03
2022-12-10T04:06:49.804Z,107.80
2022-12-10T04:08:58.901Z,88.07
2022-12-10T04:11:06.023Z,78.13
2022-12-10T04:13:27.095Z,111.82
2022-12-10T04:15:48.029Z,119.57
2022-12-10T04:17:51.374Z,115.07
2022-12-10T04:19:56.111Z,85.18
2022-12-10T04:22:17.082Z,76.22
2022-12-10T04:24:41.072Z,72.10
2022-12-10T04:26:56.258Z,84.75
2022-12-10T04:28:59.525Z,107.18
2022-12-10T04:31:02.870Z,81.53
2022-12-10T04:33:06.170Z,108.70
2022-12-10T04:35:11.365Z,75.63
2022-12-10T04:37:15.050Z,74.22
2022-12-10T04:39:19.085Z,88.38
2022-12-10T04:41:22.415Z,109.75
2022-12-10T04:43:25.746Z,108.10
2022-12-10T04:45:29.035Z,76.10
2022-12-10T04:47:32.548Z,53.60
2022-12-10T04:49:36.809Z,86.93
2022-12-10T04:51:42.240Z,120.38
2022-12-10T04:53:45.524Z,117.35
2022-12-10T04:55:49.152Z,112.43
2022-12-10T04:57:53.293Z,107.95
2022-12-10T04:59:56.719Z,112.25
2022-12-10T05:01:59.994Z,110.57
2022-12-10T05:04:05.648Z,114.20
2022-12-10T05:06:11.899Z,118.80
2022-12-10T05:08:16.572Z,123.63
2022-12-10T05:10:19.921Z,105.10
2022-12-10T05:12:23.174Z,81.07
2022-12-10T05:14:26.593Z,106.78
2022-12-10T05:16:31.820Z,118.13
2022-12-10T05:18:35.730Z,122.15
2022-12-10T05:20:39.021Z,135.20
2022-12-10T05:22:59.934Z,130.38
2022-12-10T05:25:04.823Z,124.60
2022-12-10T05:27:08.177Z,113.47
2022-12-10T05:29:12.035Z,124.82
2022-12-10T05:31:16.325Z,123.32
2022-12-10T05:33:19.790Z,104.72
2022-12-10T05:35:23.131Z,118.05
2022-12-10T05:37:26.457Z,120.85
2022-12-10T05:39:29.782Z,120.00
2022-12-10T05:41:37.621Z,121.35
2022-12-10T05:43:41.286Z,134.20
2022-12-10T05:45:44.702Z,122.53
2022-12-10T05:47:48.184Z,120.45
2022-12-10T05:49:52.716Z,128.32
2022-12-10T05:51:57.837Z,130.23
2022-12-10T05:54:02.506Z,135.93
2022-12-10T05:56:08.989Z,129.05
2022-12-10T05:58:13.630Z,154.98
2022-12-10T06:00:17.394Z,133.70
2022-12-10T06:02:20.750Z,128.82
2022-12-10T06:04:24.119Z,120.85
2022-12-10T06:06:31.145Z,129.32
2022-12-10T06:08:35.336Z,129.85
2022-12-10T06:10:39.046Z,137.27
2022-12-10T06:12:42.390Z,124.63
2022-12-10T06:14:48.299Z,136.25
2022-12-10T06:16:51.654Z,125.72
2022-12-10T06:18:55.340Z,123.82
2022-12-10T06:20:58.605Z,120.72
2022-12-10T06:23:02.027Z,131.32
2022-12-10T06:25:07.088Z,127.70
2022-12-10T06:27:10.380Z,152.05
2022-12-10T06:29:13.658Z,130.57
2022-12-10T06:31:19.106Z,130.70
2022-12-10T06:33:22.439Z,133.43
2022-12-10T06:35:25.782Z,112.35
2022-12-10T06:37:29.326Z,124.20
2022-12-10T06:39:32.639Z,120.68
2022-12-10T06:41:36.005Z,122.55
2022-12-10T06:43:39.346Z,138.35
2022-12-10T06:45:43.497Z,124.63
2022-12-10T06:47:48.349Z,132.50
2022-12-10T06:49:51.978Z,124.28
2022-12-10T06:51:55.255Z,123.00
2022-12-10T06:53:58.586Z,126.10
2022-12-10T06:56:02.176Z,117.93
2022-12-10T06:58:05.569Z,131.43
2022-12-10T07:00:10.454Z,126.53
2022-12-10T07:02:14.059Z,128.27
2022-12-10T07:04:19.108Z,121.30
2022-12-10T07:06:24.474Z,125.40
2022-12-10T07:08:28.256Z,127.63
2022-12-10T07:10:31.828Z,123.20
2022-12-10T07:12:35.296Z,126.63
2022-12-10T07:14:38.554Z,123.95
2022-12-10T07:16:41.910Z,129.52
2022-12-10T07:18:51.505Z,128.45
2022-12-10T07:20:56.978Z,120.35
2022-12-10T07:23:00.863Z,96.50
2022-12-10T07:25:04.798Z,92.10
2022-12-10T07:27:08.683Z,111.13
2022-12-10T07:29:15.509Z,119.22
2022-12-10T07:31:19.097Z,119.45
2022-12-10T07:33:22.418Z,121.15
2022-12-10T07:35:26.394Z,121.05
2022-12-10T07:37:31.084Z,132.38
2022-12-10T07:39:34.675Z,126.90
2022-12-10T07:41:38.453Z,127.22
2022-12-10T07:43:43.675Z,125.15
2022-12-10T07:45:47.089Z,125.82
2022-12-10T07:47:50.550Z,124.32
2022-12-10T07:49:53.992Z,130.68
2022-12-10T07:51:57.340Z,127.70
2022-12-10T07:54:02.013Z,123.72
2022-12-10T07:56:06.124Z,121.05
2022-12-10T07:58:09.513Z,134.75
2022-12-10T08:00:14.123Z,129.70
2022-12-10T08:02:17.500Z,116.40
2022-12-10T08:04:20.888Z,114.38
2022-12-10T08:06:25.595Z,100.72
2022-12-10T08:08:29.599Z,106.00
2022-12-10T08:10:35.522Z,100.85
2022-12-10T08:12:39.158Z,101.25
2022-12-10T08:14:42.495Z,97.20
2022-12-10T08:16:45.912Z,96.18
2022-12-10T08:18:49.275Z,114.90
2022-12-10T08:20:52.562Z,118.28
2022-12-10T08:22:55.809Z,115.50
2022-12-10T08:24:59.117Z,123.47
2022-12-10T08:27:03.892Z,99.30
2022-12-10T08:29:07.302Z,111.10
2022-12-10T08:31:12.555Z,113.45
2022-12-10T08:33:16.024Z,127.57
2022-12-10T08:35:19.308Z,115.60
2022-12-10T08:37:22.624Z,99.80
2022-12-10T08:39:25.992Z,107.10
2022-12-10T08:41:29.284Z,125.80
2022-12-10T08:43:33.982Z,129.55
2022-12-10T08:45:37.384Z,131.40
2022-12-10T08:47:41.160Z,128.13
2022-12-10T08:49:44.601Z,101.60
2022-12-10T08:51:47.921Z,114.18
2022-12-10T08:53:52.035Z,104.20
2022-12-10T08:55:55.939Z,113.03
2022-12-10T08:57:59.888Z,128.52
2022-12-10T09:00:06.053Z,118.70
2022-12-10T09:02:12.404Z,103.90
2022-12-10T09:04:16.788Z,127.10
2022-12-10T09:06:22.064Z,123.40
2022-12-10T09:08:25.447Z,130.13
2022-12-10T09:10:29.077Z,123.80
2022-12-10T09:12:34.381Z,131.45
2022-12-10T09:14:39.248Z,149.35
2022-12-10T09:16:43.965Z,151.95
2022-12-10T09:18:47.534Z,138.68
2022-12-10T09:20:50.885Z,129.48
2022-12-10T09:22:54.423Z,126.85
2022-12-10T09:24:57.717Z,132.68
2022-12-10T09:27:02.149Z,128.55
2022-12-10T09:29:05.703Z,128.90
2022-12-10T09:31:14.785Z,130.23
2022-12-10T09:33:21.854Z,137.10
2022-12-10T09:35:25.178Z,137.95
2022-12-10T09:37:28.605Z,129.07
2022-12-10T09:39:32.037Z,129.95
2022-12-10T09:42:10.750Z,151.52
2022-12-10T09:44:28.130Z,148.07
2022-12-10T09:46:42.915Z,143.02
2022-12-10T09:48:57.295Z,154.70
2022-12-10T09:51:07.316Z,142.85
2022-12-10T09:53:16.878Z,164.50
2022-12-10T09:55:24.748Z,152.73
2022-12-10T09:57:32.143Z,132.88
2022-12-10T09:59:41.305Z,129.50
2022-12-10T10:01:46.809Z,137.68
2022-12-10T10:03:51.494Z,141.70
2022-12-10T10:05:58.333Z,134.70
2022-12-10T10:08:05.299Z,146.77
2022-12-10T10:10:25.092Z,147.43
2022-12-10T10:12:29.956Z,158.57
2022-12-10T10:14:33.971Z,162.65
2022-12-10T10:16:41.262Z,151.73
2022-12-10T10:18:48.316Z,141.00
2022-12-10T10:20:53.226Z,128.95
2022-12-10T10:22:58.706Z,139.23
2022-12-10T10:25:03.496Z,152.65
2022-12-10T10:27:15.818Z,161.48
2022-12-10T10:29:22.157Z,121.45
2022-12-10T10:31:28.129Z,128.02
2022-12-10T10:33:31.377Z,124.82
2022-12-10T10:35:43.484Z,137.15
2022-12-10T10:37:48.262Z,138.35
2022-12-10T10:39:53.243Z,132.88
2022-12-10T10:41:59.297Z,137.13
2022-12-10T10:44:04.811Z,126.63
2022-12-10T10:46:14.414Z,146.65
2022-12-10T10:48:20.855Z,129.10
2022-12-10T10:50:26.373Z,148.13
2022-12-10T10:52:31.397Z,142.77
2022-12-10T10:54:40.499Z,143.10
2022-12-10T10:56:45.779Z,146.05
2022-12-10T10:58:55.549Z,132.98
2022-12-10T11:01:01.473Z,129.52
2022-12-10T11:03:08.588Z,133.38
2022-12-10T11:05:19.767Z,126.43
2022-12-10T11:07:28.505Z,145.60
2022-12-10T11:09:34.969Z,139.73
2022-12-10T11:11:42.465Z,133.98
2022-12-10T11:13:45.936Z,132.40
2022-12-10T11:15:57.504Z,128.60
2022-12-10T11:18:01.210Z,149.63
2022-12-10T11:20:19.339Z,130.15
2022-12-10T11:22:24.899Z,127.03
2022-12-10T11:24:28.294Z,130.85
2022-12-10T11:26:51.521Z,136.55
2022-12-10T11:29:07.770Z,125.57
2022-12-10T11:31:27.332Z,139.45
2022-12-10T11:33:39.070Z,133.98
2022-12-10T11:35:52.899Z,132.30
2022-12-10T11:38:02.294Z,129.82
2022-12-10T11:40:23.862Z,127.72
2022-12-10T11:42:40.482Z,135.98
2022-12-10T11:44:49.783Z,134.40
2022-12-10T11:47:04.085Z,137.30
2022-12-10T11:49:21.505Z,134.38
2022-12-10T11:51:33.733Z,136.32
2022-12-10T11:54:02.052Z,133.73
2022-12-10T11:56:19.039Z,132.10
2022-12-10T11:58:49.138Z,129.80
2022-12-10T12:01:06.620Z,140.23
2022-12-10T12:03:39.024Z,130.93
2022-12-10T12:05:53.951Z,127.32
2022-12-10T12:08:03.382Z,119.85
2022-12-10T12:10:53.805Z,128.48
2022-12-10T12:13:01.991Z,106.38
2022-12-10T12:15:19.251Z,122.88
2022-12-10T12:17:27.229Z,130.30
2022-12-10T12:19:36.921Z,119.22
2022-12-10T12:21:42.315Z,116.88
2022-12-10T12:23:51.778Z,119.95
2022-12-10T12:25:59.197Z,122.57
2022-12-10T12:28:12.135Z,112.05
2022-12-10T12:30:19.918Z,122.43
2022-12-10T12:32:27.706Z,127.63
2022-12-10T12:34:39.397Z,114.10
2022-12-10T12:36:42.817Z,125.03
2022-12-10T12:38:54.514Z,117.35
2022-12-10T12:41:04.604Z,125.65
2022-12-10T12:43:12.864Z,120.65
2022-12-10T12:45:22.636Z,115.72
2022-12-10T12:47:36.757Z,115.43
2022-12-10T12:49:43.505Z,118.25
2022-12-10T12:51:53.097Z,134.95
2022-12-10T12:53:56.733Z,136.05
2022-12-10T12:56:06.565Z,148.05
2022-12-10T12:58:35.672Z,114.50
2022-12-10T13:00:43.375Z,123.90
2022-12-10T13:02:55.849Z,112.85
2022-12-10T13:05:01.113Z,124.43
2022-12-10T13:07:28.903Z,110.30
2022-12-10T13:09:32.369Z,123.60
2022-12-10T13:11:38.046Z,133.93
2022-12-10T13:13:43.339Z,118.03
2022-12-10T13:15:48.002Z,136.23
2022-12-10T13:18:21.611Z,116.82
2022-12-10T13:20:36.537Z,117.53
2022-12-10T13:22:55.749Z,116.95
2022-12-10T13:25:12.057Z,123.70
2022-12-10T13:27:20.989Z,130.38
2022-12-10T13:29:26.738Z,114.50
2022-12-10T13:31:40.222Z,111.70
2022-12-10T13:33:51.562Z,110.03
2022-12-10T13:36:08.711Z,128.48
2022-12-10T13:38:21.462Z,112.78
2022-12-10T13:40:27.252Z,130.13
2022-12-10T13:42:51.330Z,129.55
2022-12-10T13:45:02.236Z,124.10
2022-12-10T13:49:51.623Z,146.25
2022-12-10T13:52:01.701Z,108.40
2022-12-10T13:54:24.622Z,128.93
2022-12-10T13:56:31.587Z,124.35
2022-12-10T13:58:47.615Z,125.10
2022-12-10T14:00:58.805Z,127.28
2022-12-10T14:03:28.207Z,114.30
2022-12-10T14:05:48.219Z,126.57
2022-12-10T14:07:57.184Z,114.15
2022-12-10T14:10:03.294Z,122.32
2022-12-10T14:12:12.833Z,150.75
2022-12-10T14:14:26.154Z,136.45
2022-12-10T14:16:33.010Z,144.23
2022-12-10T14:18:38.371Z,138.98
2022-12-10T14:20:47.828Z,128.52
2022-12-10T14:22:52.783Z,125.60
2022-12-10T14:25:02.270Z,138.93
2022-12-10T14:27:14.250Z,118.45
2022-12-10T14:29:25.814Z,127.90
2022-12-10T14:31:35.570Z,119.85
2022-12-10T14:33:39.726Z,137.02
2022-12-10T14:35:48.336Z,119.30
2022-12-10T14:37:53.131Z,120.60
2022-12-10T14:39:56.824Z,119.25
2022-12-10T14:42:02.847Z,129.23
2022-12-10T14:44:06.345Z,148.05
2022-12-10T14:46:16.352Z,124.57
2022-12-10T14:48:20.624Z,121.75
2022-12-10T14:50:24.280Z,128.98
2022-12-10T14:52:40.754Z,130.13
2022-12-10T14:54:44.743Z,118.00
2022-12-10T14:56:48.098Z,124.70
2022-12-10T14:58:58.792Z,139.20
2022-12-10T15:01:02.240Z,119.30
2022-12-10T15:03:10.580Z,119.47
2022-12-10T15:05:19.129Z,133.48
2022-12-10T15:07:25.834Z,144.13
2022-12-10T15:09:31.277Z,122.32
2022-12-10T15:11:34.876Z,110.70
2022-12-10T15:13:42.197Z,124.82
2022-12-10T15:15:50.347Z,142.85
2022-12-10T15:18:00.301Z,128.88
2022-12-10T15:20:03.881Z,119.70
2022-12-10T15:22:20.891Z,126.63
2022-12-10T15:24:30.173Z,122.80
2022-12-10T15:26:35.972Z,124.80
2022-12-10T15:28:41.240Z,114.63
2022-12-10T15:30:48.261Z,124.30
2022-12-10T15:32:51.630Z,125.78
2022-12-10T15:34:57.176Z,120.72
2022-12-10T15:37:04.679Z,126.38
2022-12-10T15:39:17.976Z,128.45
2022-12-10T15:41:39.423Z,133.00
2022-12-10T15:43:53.828Z,133.68
2022-12-10T15:45:58.367Z,135.23
2022-12-10T15:48:02.050Z,129.57
2022-12-10T15:50:06.931Z,126.38
2022-12-10T15:52:15.038Z,118.32
2022-12-10T15:54:28.895Z,122.97
2022-12-10T15:56:32.208Z,151.23
2022-12-10T15:58:36.913Z,150.18
2022-12-10T16:00:44.722Z,139.88
2022-12-10T16:02:52.165Z,124.80
2022-12-10T16:04:56.319Z,136.73
2022-12-10T16:06:59.635Z,137.95
2022-12-10T16:09:02.933Z,130.60
2022-12-10T16:11:17.052Z,123.78
2022-12-10T16:13:23.911Z,115.82
2022-12-10T16:15:31.924Z,141.13
2022-12-10T16:17:35.469Z,134.77
2022-12-10T16:19:39.956Z,136.40
2022-12-10T16:21:44.158Z,117.68
2022-12-10T16:23:49.409Z,126.00
2022-12-10T16:25:52.753Z,136.88
2022-12-10T16:27:56.199Z,132.55
2022-12-10T16:29:59.618Z,128.27
2022-12-10T16:32:04.292Z,131.73
2022-12-10T16:34:08.458Z,128.77
2022-12-10T16:36:12.424Z,132.63
2022-12-10T16:38:15.764Z,133.27
2022-12-10T16:40:19.569Z,120.07
2022-12-10T16:42:22.850Z,143.05
2022-12-10T16:44:27.826Z,137.50
2022-12-10T16:46:31.098Z,139.25
2022-12-10T16:48:35.900Z,128.45
2022-12-10T16:50:39.324Z,132.93
2022-12-10T16:52:43.370Z,107.90
2022-12-10T16:54:46.629Z,126.60
2022-12-10T16:56:49.939Z,130.48
2022-12-10T16:58:53.771Z,125.35
2022-12-10T17:00:57.197Z,130.10
2022-12-10T17:03:07.669Z,137.77
2022-12-10T17:05:16.783Z,139.45
2022-12-10T17:07:21.258Z,129.23
2022-12-10T17:09:24.554Z,128.60
2022-12-10T17:11:46.407Z,130.40
2022-12-10T17:13:50.964Z,123.35
2022-12-10T17:15:54.658Z,136.20
2022-12-10T17:17:58.228Z,143.38
2022-12-10T17:20:01.613Z,136.38
2022-12-10T17:22:06.906Z,138.27
2022-12-10T17:24:10.207Z,132.70
2022-12-10T17:26:23.788Z,140.32
2022-12-10T17:28:27.155Z,135.85
2022-12-10T17:30:30.548Z,144.02
2022-12-10T17:32:33.988Z,138.27
2022-12-10T17:34:37.379Z,139.85
2022-12-10T17:36:41.300Z,140.63
2022-12-10T17:38:46.107Z,141.43
2022-12-10T17:40:49.397Z,120.20
2022-12-10T17:42:52.696Z,159.13
2022-12-10T17:44:56.594Z,154.93
2022-12-10T17:47:00.195Z,129.25
2022-12-10T17:49:03.970Z,122.10
2022-12-10T17:51:07.409Z,161.32
2022-12-10T17:53:14.931Z,161.65
2022-12-10T17:55:19.886Z,143.00
2022-12-10T17:57:25.951Z,139.63
2022-12-10T17:59:29.319Z,139.25
2022-12-10T18:01:32.633Z,135.48
2022-12-10T18:03:35.986Z,139.40
2022-12-10T18:05:39.761Z,147.93
2022-12-10T18:07:43.259Z,168.65
2022-12-10T18:09:46.804Z,140.27
2022-12-10T18:11:54.506Z,141.18
2022-12-10T18:13:58.373Z,149.35
2022-12-10T18:16:03.472Z,136.88
2022-12-10T18:18:06.862Z,138.15
2022-12-10T18:20:22.965Z,126.68
2022-12-10T18:22:26.973Z,157.68
2022-12-10T18:24:30.949Z,153.65
2022-12-10T18:26:35.766Z,147.38
2022-12-10T18:28:55.297Z,143.10
2022-12-10T18:31:02.457Z,134.98
2022-12-10T18:33:06.827Z,150.73
2022-12-10T18:35:11.632Z,145.10
2022-12-10T18:37:15.182Z,146.93
2022-12-10T18:39:20.583Z,146.98
2022-12-10T18:41:24.896Z,139.15
2022-12-10T18:43:28.200Z,136.20
2022-12-10T18:45:33.161Z,139.85
2022-12-10T18:47:36.728Z,158.38
2022-12-10T18:49:40.595Z,141.73
2022-12-10T18:51:44.760Z,146.18
2022-12-10T18:53:49.078Z,146.90
2022-12-10T18:55:52.474Z,148.43
2022-12-10T18:58:04.586Z,137.43
2022-12-10T19:00:17.529Z,131.20
2022-12-10T19:02:22.241Z,145.95
2022-12-10T19:04:25.644Z,141.68
2022-12-10T19:06:30.403Z,124.00
2022-12-10T19:08:44.684Z,128.18
2022-12-10T19:10:57.825Z,127.72
2022-12-10T19:13:01.565Z,133.63
2022-12-10T19:15:05.919Z,121.10
2022-12-10T19:17:10.678Z,135.32
2022-12-10T19:19:17.135Z,141.18
2022-12-10T19:21:20.953Z,133.73
2022-12-10T19:23:24.301Z,134.88
2022-12-10T19:25:27.767Z,146.35
2022-12-10T19:27:31.188Z,136.48
2022-12-10T19:29:34.553Z,151.13
2022-12-10T19:31:38.003Z,141.02
2022-12-10T19:33:41.331Z,129.95
2022-12-10T19:35:46.330Z,132.60
2022-12-10T19:37:55.856Z,124.80
2022-12-10T19:40:00.809Z,143.70
2022-12-10T19:42:04.175Z,131.68
2022-12-10T19:44:07.594Z,140.60
2022-12-10T19:46:19.160Z,156.63
2022-12-10T19:48:22.648Z,131.50
2022-12-10T19:50:28.181Z,129.50
2022-12-10T19:52:32.959Z,137.43
2022-12-10T19:54:36.377Z,138.30
2022-12-10T19:56:40.235Z,146.95
2022-12-10T19:58:43.601Z,135.23
2022-12-10T20:00:48.565Z,137.13
2022-12-10T20:02:52.344Z,147.52
2022-12-10T20:04:55.666Z,154.25
2022-12-10T20:06:59.066Z,140.95
2022-12-10T20:09:06.294Z,142.65
2022-12-10T20:11:09.658Z,135.80
2022-12-10T20:13:12.971Z,139.27
2022-12-10T20:15:16.707Z,160.85
2022-12-10T20:17:24.701Z,150.82
2022-12-10T20:19:28.038Z,134.38
2022-12-10T20:21:31.381Z,135.18
2022-12-10T20:23:35.114Z,136.07
2022-12-10T20:25:45.044Z,150.27
2022-12-10T20:27:48.640Z,137.85
2022-12-10T20:29:52.025Z,130.52
2022-12-10T20:31:57.741Z,145.32
2022-12-10T20:34:01.037Z,146.20
2022-12-10T20:36:04.665Z,138.45
2022-12-10T20:38:08.175Z,151.07
2022-12-10T20:40:31.377Z,163.05
2022-12-10T20:42:38.061Z,150.32
2022-12-10T20:44:41.395Z,116.95
2022-12-10T20:46:44.845Z,133.70
2022-12-10T20:48:48.657Z,147.07
2022-12-10T20:50:52.097Z,145.57
2022-12-10T20:52:55.381Z,139.07
2022-12-10T20:54:58.668Z,151.38
2022-12-10T20:57:01.995Z,138.68
2022-12-10T20:59:07.485Z,141.05
2022-12-10T21:01:11.142Z,151.35
2022-12-10T21:03:14.714Z,150.00
2022-12-10T21:05:18.467Z,148.80
2022-12-10T21:07:23.567Z,145.88
2022-12-10T21:09:26.915Z,132.77
2022-12-10T21:11:30.478Z,112.82
2022-12-10T21:13:34.375Z,134.90
2022-12-10T21:15:39.065Z,153.73
2022-12-10T21:17:42.848Z,156.05
2022-12-10T21:19:46.301Z,144.75
2022-12-10T21:21:49.608Z,159.35
2022-12-10T21:23:53.112Z,148.15
2022-12-10T21:25:57.021Z,147.50
2022-12-10T21:28:00.393Z,148.20
2022-12-10T21:30:04.145Z,147.02
2022-12-10T21:32:08.839Z,143.75
2022-12-10T21:34:12.381Z,132.18
2022-12-10T21:36:17.736Z,129.60
2022-12-10T21:38:21.222Z,128.05
2022-12-10T21:40:24.722Z,149.02
2022-12-10T21:42:45.751Z,151.15
2022-12-10T21:44:49.099Z,143.65
2022-12-10T21:46:52.502Z,131.30
2022-12-10T21:48:57.351Z,124.50
2022-12-10T21:51:02.634Z,131.73
2022-12-10T21:53:06.192Z,127.95
2022-12-10T21:55:10.864Z,141.90
2022-12-10T21:57:14.595Z,130.90
2022-12-10T21:59:17.938Z,125.47
2022-12-10T22:01:21.962Z,153.45
2022-12-10T22:03:26.267Z,132.70
2022-12-10T22:05:31.045Z,116.65
2022-12-10T22:07:36.027Z,117.57
2022-12-10T22:09:39.343Z,120.35
2022-12-10T22:11:43.268Z,134.18
2022-12-10T22:13:46.649Z,169.23
2022-12-10T22:15:50.056Z,144.50
2022-12-10T22:17:53.915Z,167.93
2022-12-10T22:19:57.383Z,139.40
2022-12-10T22:22:02.052Z,149.38
2022-12-10T22:24:05.764Z,139.15
2022-12-10T22:26:10.108Z,137.13
2022-12-10T22:28:13.428Z,113.05
2022-12-10T22:30:16.763Z,110.35
2022-12-10T22:32:20.109Z,120.40
2022-12-10T22:34:23.371Z,126.40
2022-12-10T22:36:26.669Z,123.22
2022-12-10T22:38:31.565Z,132.02
2022-12-10T22:40:34.955Z,137.05
2022-12-10T22:42:39.220Z,139.57
2022-12-10T22:44:42.530Z,141.82
2022-12-10T22:46:46.112Z,142.15
2022-12-10T22:48:49.696Z,155.25
2022-12-10T22:51:02.219Z,135.75
2022-12-10T22:53:06.255Z,150.32
2022-12-10T22:55:11.966Z,141.48
2022-12-10T22:57:15.488Z,149.60
2022-12-10T22:59:19.113Z,135.77
2022-12-10T23:01:23.746Z,149.05
2022-12-10T23:03:27.887Z,139.25
2022-12-10T23:05:31.304Z,143.35
2022-12-10T23:07:34.601Z,146.57
2022-12-10T23:09:37.881Z,139.35
2022-12-10T23:12:03.274Z,146.60
2022-12-10T23:14:05.803Z,156.57
2022-12-10T23:16:13.854Z,147.52
2022-12-10T23:18:17.508Z,159.23
2022-12-10T23:20:20.973Z,152.18
2022-12-10T23:22:24.300Z,143.75
2022-12-10T23:24:27.656Z,143.10
2022-12-10T23:26:31.026Z,143.18
2022-12-10T23:28:35.699Z,146.88
2022-12-10T23:30:39.016Z,140.05
2022-12-10T23:32:42.326Z,138.48
2022-12-10T23:34:45.673Z,142.35
2022-12-10T23:36:49.095Z,146.43
2022-12-10T23:38:52.367Z,119.35
2022-12-10T23:40:55.744Z,120.82
2022-12-10T23:42:59.018Z,141.60
2022-12-10T23:45:04.233Z,146.55
2022-12-10T23:47:07.803Z,131.77
2022-12-10T23:49:11.184Z,141.45
2022-12-10T23:51:14.499Z,141.90
2022-12-10T23:53:17.828Z,147.75
2022-12-10T23:55:21.414Z,139.73
2022-12-10T23:57:24.767Z,139.45
2022-12-10T23:59:28.060Z,142.55
